Time;durP1;ratioP1;P1;durP2;ratioP2;P2;SDS_P1;SDS_P2;PMS_P1;PMS_P2;Temp;Humidity;BMP_temperature;BMP_pressure;BME280_temperature;BME280_humidity;BME280_pressure;Samples;Min_cycle;Max_cycle;Signal;HPM_P1;HPM_P2
2022/01/08 00:01:08;;;;;;;0.43;0.10;;;19.50;44.20;;;;;;5031373;28;20095;-51
2022/01/08 00:03:36;;;;;;;0.10;0.00;;;19.50;44.20;;;;;;5037441;28;20115;-50
2022/01/08 00:06:04;;;;;;;0.15;0.00;;;19.50;44.20;;;;;;5033780;28;20037;-48
2022/01/08 00:08:31;;;;;;;0.10;0.00;;;19.50;44.20;;;;;;5029902;28;20421;-49
2022/01/08 00:10:59;;;;;;;0.10;0.08;;;19.50;44.80;;;;;;5013264;28;20067;-48
2022/01/08 00:13:27;;;;;;;0.10;0.00;;;19.50;44.20;;;;;;5034757;28;20045;-51
2022/01/08 00:15:54;;;;;;;0.20;0.00;;;19.50;44.10;;;;;;5031714;28;20095;-50
2022/01/08 00:18:21;;;;;;;0.47;0.05;;;19.50;44.10;;;;;;5035051;28;20056;-47
2022/01/08 00:20:48;;;;;;;0.03;0.00;;;19.50;44.10;;;;;;5034761;28;20037;-47
2022/01/08 00:23:16;;;;;;;0.10;0.00;;;19.50;44.10;;;;;;5031415;28;20048;-50
2022/01/08 00:25:44;;;;;;;0.00;0.00;;;19.50;44.10;;;;;;5029467;28;20044;-48
2022/01/08 00:28:11;;;;;;;0.68;0.10;;;19.50;44.10;;;;;;5031865;28;20796;-49
2022/01/08 00:30:38;;;;;;;0.10;0.10;;;19.50;44.10;;;;;;5036520;28;20399;-53
2022/01/08 00:33:05;;;;;;;0.57;0.10;;;19.50;44.00;;;;;;5033202;28;20041;-49
2022/01/08 00:35:33;;;;;;;0.10;0.05;;;19.50;44.00;;;;;;5032303;28;20052;-51
2022/01/08 00:38:00;;;;;;;0.10;0.10;;;19.50;44.00;;;;;;5030927;28;20083;-53
2022/01/08 00:40:29;;;;;;;0.13;0.05;;;19.40;43.90;;;;;;5034610;28;20045;-49
2022/01/08 00:42:56;;;;;;;0.20;0.00;;;19.50;44.00;;;;;;5031429;28;20045;-51
2022/01/08 00:45:23;;;;;;;0.38;0.00;;;19.50;44.10;;;;;;5033049;28;20049;-51
2022/01/08 00:47:50;;;;;;;0.50;0.10;;;19.40;43.90;;;;;;5036988;28;20410;-48
2022/01/08 00:50:18;;;;;;;0.10;0.00;;;19.40;44.00;;;;;;5035522;28;20593;-47
2022/01/08 00:52:45;;;;;;;1.08;0.00;;;19.40;43.90;;;;;;5032954;28;20128;-46
2022/01/08 00:55:13;;;;;;;0.70;0.10;;;19.40;43.90;;;;;;5035592;28;20421;-50
2022/01/08 00:57:42;;;;;;;0.25;0.00;;;19.40;43.90;;;;;;5041609;28;20045;-53
2022/01/08 01:00:11;;;;;;;0.93;0.08;;;19.40;43.90;;;;;;5037446;28;20490;-51
2022/01/08 01:02:39;;;;;;;0.60;0.05;;;19.40;43.90;;;;;;5035237;28;20056;-49
2022/01/08 01:05:08;;;;;;;0.28;0.00;;;19.40;43.80;;;;;;5031864;28;20041;-49
2022/01/08 01:07:36;;;;;;;0.28;0.10;;;19.40;43.90;;;;;;5035325;28;20584;-48
2022/01/08 01:10:03;;;;;;;0.93;0.10;;;19.40;43.80;;;;;;5035733;28;20486;-51
2022/01/08 01:12:30;;;;;;;0.00;0.00;;;19.40;43.80;;;;;;5034962;28;20736;-50
2022/01/08 01:14:59;;;;;;;0.17;0.17;;;19.40;43.80;;;;;;5037267;28;20072;-49
2022/01/08 01:17:26;;;;;;;0.13;0.10;;;19.40;43.80;;;;;;5034977;28;20081;-52
2022/01/08 01:19:53;;;;;;;0.15;0.00;;;19.40;43.80;;;;;;5032013;28;20037;-51
2022/01/08 01:22:25;;;;;;;0.43;0.00;;;19.40;43.80;;;;;;5034033;28;20060;-52
2022/01/08 01:24:59;;;;;;;1.15;0.10;;;19.40;43.80;;;;;;5048640;28;20049;-50
2022/01/08 01:27:52;;;;;;;0.10;0.00;;;19.40;43.80;;;;;;5034360;28;20041;-49
2022/01/08 01:30:32;;;;;;;0.65;0.10;;;19.40;43.80;;;;;;5036949;28;20051;-50
2022/01/08 01:41:27;;;;;;;0.30;0.00;;;19.30;43.70;;;;;;5023513;28;20091;-45
2022/01/08 01:47:01;;;;;;;0.70;0.00;;;19.30;43.70;;;;;;5006182;28;20167;-49
2022/01/08 01:49:28;;;;;;;0.10;0.00;;;19.30;43.70;;;;;;5007204;28;20046;-50
2022/01/08 01:51:56;;;;;;;0.30;0.08;;;19.30;43.70;;;;;;5011957;28;20042;-52
2022/01/08 01:54:23;;;;;;;0.43;0.00;;;19.30;43.80;;;;;;5012649;28;20585;-52
2022/01/08 01:56:50;;;;;;;0.68;0.30;;;19.20;43.60;;;;;;5016503;28;20054;-49
2022/01/08 01:59:17;;;;;;;0.47;0.47;;;19.30;43.70;;;;;;5009579;28;20051;-49
2022/01/08 02:01:45;;;;;;;0.75;0.03;;;19.20;43.60;;;;;;5006087;28;20428;-47
2022/01/08 02:04:12;;;;;;;1.10;0.03;;;19.30;43.60;;;;;;5020970;28;20052;-48
2022/01/08 02:06:39;;;;;;;0.30;0.10;;;19.20;43.60;;;;;;5015413;28;20046;-46
2022/01/08 02:09:07;;;;;;;0.00;0.00;;;19.20;43.60;;;;;;5011591;28;20053;-50
2022/01/08 02:11:34;;;;;;;0.10;0.10;;;19.20;43.50;;;;;;5006522;28;20038;-48
2022/01/08 02:14:04;;;;;;;0.73;0.00;;;19.20;43.50;;;;;;5022530;28;20128;-48
2022/01/08 02:16:31;;;;;;;0.00;0.00;;;19.20;44.10;;;;;;5032000;28;20832;-48
2022/01/08 02:19:00;;;;;;;0.22;0.00;;;19.20;43.50;;;;;;5038239;28;20050;-46
2022/01/08 02:21:28;;;;;;;0.00;0.00;;;19.20;43.50;;;;;;5040077;28;20068;-51
2022/01/08 02:23:55;;;;;;;0.15;0.00;;;19.20;43.40;;;;;;5044487;28;20041;-45
2022/01/08 02:26:22;;;;;;;1.42;0.00;;;19.20;43.40;;;;;;5044380;28;20450;-45
2022/01/08 02:28:49;;;;;;;0.73;0.10;;;19.20;43.40;;;;;;5033242;28;20049;-46
2022/01/08 02:31:23;;;;;;;0.10;0.08;;;19.20;43.40;;;;;;5033190;28;20502;-48
2022/01/08 02:33:50;;;;;;;0.55;0.20;;;19.20;43.40;;;;;;5033255;28;20052;-50
2022/01/08 02:36:17;;;;;;;0.20;0.20;;;19.20;43.40;;;;;;5039833;28;20039;-48
2022/01/08 02:38:47;;;;;;;0.10;0.10;;;19.20;43.40;;;;;;5033179;28;20041;-49
2022/01/08 02:41:15;;;;;;;0.00;0.00;;;19.20;43.40;;;;;;5030312;28;20577;-49
2022/01/08 02:43:45;;;;;;;0.30;0.30;;;19.20;43.40;;;;;;5030487;28;20095;-43
2022/01/08 02:46:13;;;;;;;0.20;0.00;;;19.20;43.40;;;;;;5037066;28;20601;-48
2022/01/08 02:48:40;;;;;;;0.10;0.10;;;19.10;43.30;;;;;;5032966;28;20088;-46
2022/01/08 02:51:07;;;;;;;0.00;0.00;;;19.10;43.30;;;;;;5033422;28;20041;-48
2022/01/08 02:53:34;;;;;;;1.08;0.00;;;19.20;43.40;;;;;;5032789;28;20037;-46
2022/01/08 02:56:02;;;;;;;0.10;0.00;;;19.20;43.30;;;;;;5037294;28;20109;-51
2022/01/08 02:58:29;;;;;;;0.80;0.10;;;19.20;43.30;;;;;;5042251;28;20047;-53
2022/01/08 03:00:57;;;;;;;0.20;0.00;;;19.10;43.40;;;;;;5036131;28;20541;-48
2022/01/08 03:03:25;;;;;;;1.55;0.00;;;19.10;43.60;;;;;;5040643;28;20033;-51
2022/01/08 03:05:52;;;;;;;1.55;0.00;;;19.10;43.80;;;;;;5035822;28;20702;-48
2022/01/08 03:08:19;;;;;;;0.10;0.00;;;19.10;43.90;;;;;;5029679;28;20041;-51
2022/01/08 03:10:46;;;;;;;4.70;0.10;;;19.10;44.00;;;;;;5030610;28;20041;-45
2022/01/08 03:13:14;;;;;;;4.53;0.10;;;19.10;44.00;;;;;;5034910;28;20844;-44
2022/01/08 03:15:41;;;;;;;1.35;0.20;;;19.20;44.30;;;;;;5037233;28;20902;-47
2022/01/08 03:18:09;;;;;;;1.27;0.40;;;19.10;44.20;;;;;;5036263;28;20053;-45
2022/01/08 03:20:45;;;;;;;4.13;0.10;;;19.10;44.20;;;;;;5038007;28;20052;-46
2022/01/08 03:23:15;;;;;;;1.48;0.88;;;19.20;44.30;;;;;;5033088;28;20530;-43
2022/01/08 03:25:42;;;;;;;2.17;0.00;;;19.10;44.30;;;;;;5035339;28;20110;-45
2022/01/08 03:28:10;;;;;;;2.67;0.40;;;19.20;44.40;;;;;;5040434;28;20029;-44
2022/01/08 03:30:39;;;;;;;2.35;0.30;;;19.10;44.30;;;;;;5038841;28;20040;-43
2022/01/08 03:33:06;;;;;;;2.80;0.20;;;19.10;44.30;;;;;;5039046;28;20037;-43
2022/01/08 03:35:34;;;;;;;1.30;0.52;;;19.10;44.30;;;;;;5035114;28;20132;-43
2022/01/08 03:38:01;;;;;;;2.28;0.43;;;19.20;44.40;;;;;;5034410;28;20409;-44
2022/01/08 03:40:28;;;;;;;2.03;0.85;;;19.10;44.30;;;;;;5039652;28;20120;-45
2022/01/08 03:42:55;;;;;;;1.02;0.30;;;19.20;44.40;;;;;;5039588;28;20037;-48
2022/01/08 03:45:23;;;;;;;2.15;0.30;;;19.20;44.50;;;;;;5037839;28;20048;-46
2022/01/08 03:50:35;;;;;;;4.70;0.57;;;19.20;44.50;;;;;;5033690;28;20045;-45
2022/01/08 03:53:02;;;;;;;2.85;0.35;;;19.10;44.50;;;;;;5035995;28;21378;-45
2022/01/08 03:55:29;;;;;;;1.75;0.10;;;19.10;44.50;;;;;;5037420;28;20494;-45
2022/01/08 03:57:56;;;;;;;4.03;0.10;;;19.10;44.50;;;;;;5037893;28;20041;-43
2022/01/08 04:00:23;;;;;;;2.60;0.75;;;19.10;44.60;;;;;;5037414;28;20131;-44
2022/01/08 04:02:53;;;;;;;6.28;0.30;;;19.10;45.20;;;;;;5039802;28;20041;-48
2022/01/08 04:05:20;;;;;;;4.30;0.10;;;19.10;44.60;;;;;;5035838;28;20083;-44
2022/01/08 04:07:47;;;;;;;5.15;0.38;;;19.10;44.70;;;;;;5026376;28;20421;-43
2022/01/08 04:10:14;;;;;;;0.70;0.10;;;19.10;44.70;;;;;;5032162;28;20045;-46
2022/01/08 04:12:45;;;;;;;3.28;0.20;;;19.20;44.80;;;;;;5036810;28;20048;-43
2022/01/08 04:15:32;;;;;;;0.10;0.10;;;19.20;44.80;;;;;;5031864;28;20869;-43
2022/01/08 04:18:01;;;;;;;4.28;0.30;;;19.20;44.90;;;;;;5042893;28;20159;-45
2022/01/08 04:20:28;;;;;;;0.90;0.10;;;19.20;45.00;;;;;;5030222;28;20425;-43
2022/01/08 04:22:55;;;;;;;1.42;0.10;;;19.20;45.00;;;;;;5033346;28;20050;-42
2022/01/08 04:25:24;;;;;;;1.33;0.10;;;19.20;45.00;;;;;;5032703;28;20077;-44
2022/01/08 04:27:52;;;;;;;0.10;0.00;;;19.20;45.10;;;;;;5034153;28;20129;-47
2022/01/08 04:30:19;;;;;;;0.77;0.13;;;19.20;45.10;;;;;;5043133;28;20045;-43
2022/01/08 04:32:47;;;;;;;1.98;0.20;;;19.20;45.10;;;;;;5042418;28;20044;-44
2022/01/08 04:35:15;;;;;;;1.23;0.10;;;19.20;45.10;;;;;;5030090;28;20045;-47
2022/01/08 04:37:42;;;;;;;1.10;0.10;;;19.20;45.20;;;;;;5028874;28;20056;-46
2022/01/08 04:40:10;;;;;;;1.58;0.30;;;19.30;45.20;;;;;;5035068;28;20047;-46
2022/01/08 04:42:37;;;;;;;0.20;0.03;;;19.20;45.20;;;;;;5033137;28;20045;-43
2022/01/08 04:45:05;;;;;;;0.65;0.10;;;19.30;45.30;;;;;;5033012;28;20657;-47
2022/01/08 04:47:32;;;;;;;1.55;0.05;;;19.30;45.30;;;;;;5029956;28;20293;-45
2022/01/08 04:49:59;;;;;;;0.17;0.00;;;19.30;45.40;;;;;;5039084;28;20038;-43
2022/01/08 04:52:27;;;;;;;2.88;0.20;;;19.30;45.40;;;;;;5032314;28;20041;-45
2022/01/08 04:54:54;;;;;;;3.30;0.08;;;19.30;45.40;;;;;;5036468;28;20041;-45
2022/01/08 04:57:21;;;;;;;1.25;0.52;;;19.30;45.50;;;;;;5037454;28;20048;-43
2022/01/08 04:59:48;;;;;;;1.58;0.05;;;19.30;45.50;;;;;;5032688;28;20069;-43
2022/01/08 05:02:15;;;;;;;0.20;0.20;;;19.30;45.60;;;;;;5040055;28;20041;-43
2022/01/08 05:04:43;;;;;;;2.63;0.25;;;19.30;45.60;;;;;;5028991;28;20053;-48
2022/01/08 05:07:10;;;;;;;0.47;0.08;;;19.40;45.70;;;;;;5035885;28;20034;-44
2022/01/08 05:09:38;;;;;;;0.43;0.28;;;19.40;45.70;;;;;;5032419;28;20144;-43
2022/01/08 05:12:06;;;;;;;2.47;0.10;;;19.40;45.80;;;;;;5034231;28;20486;-43
2022/01/08 05:14:33;;;;;;;1.65;0.10;;;19.40;45.90;;;;;;5031455;28;20059;-46
2022/01/08 05:17:01;;;;;;;1.00;0.55;;;19.40;45.90;;;;;;5033449;28;20440;-43
2022/01/08 05:19:40;;;;;;;0.50;0.10;;;19.40;46.50;;;;;;5031994;28;20053;-46
2022/01/08 05:22:09;;;;;;;1.17;0.50;;;19.40;46.00;;;;;;5033117;28;20067;-47
2022/01/08 05:24:38;;;;;;;0.10;0.10;;;19.40;46.00;;;;;;5037861;28;20040;-45
2022/01/08 05:27:06;;;;;;;0.82;0.00;;;19.40;46.10;;;;;;5034662;28;20053;-45
2022/01/08 05:29:33;;;;;;;0.20;0.00;;;19.40;46.10;;;;;;5029892;28;20029;-50
2022/01/08 05:32:00;;;;;;;0.05;0.05;;;19.40;46.20;;;;;;5033707;28;20802;-46
2022/01/08 05:34:27;;;;;;;0.28;0.00;;;19.40;46.20;;;;;;5040323;28;20037;-46
2022/01/08 05:36:54;;;;;;;1.33;0.05;;;19.50;46.30;;;;;;5038106;28;20037;-45
2022/01/08 05:39:21;;;;;;;0.38;0.38;;;19.50;46.30;;;;;;5037930;28;20048;-46
2022/01/08 05:41:50;;;;;;;0.68;0.15;;;19.50;46.40;;;;;;5036582;28;20045;-46
2022/01/08 05:44:17;;;;;;;0.30;0.10;;;19.50;46.40;;;;;;5045455;28;20505;-50
2022/01/08 05:46:46;;;;;;;2.08;0.35;;;19.50;46.40;;;;;;5031172;28;20128;-45
2022/01/08 05:49:15;;;;;;;1.85;0.00;;;19.50;46.40;;;;;;5047384;28;20068;-46
2022/01/08 05:51:42;;;;;;;0.15;0.00;;;19.50;46.50;;;;;;5037074;28;20045;-49
2022/01/08 05:54:09;;;;;;;0.43;0.00;;;19.50;46.50;;;;;;5034695;28;20763;-46
2022/01/08 05:56:36;;;;;;;0.43;0.00;;;19.50;46.60;;;;;;5034054;28;20055;-46
2022/01/08 05:59:04;;;;;;;0.25;0.10;;;19.60;46.70;;;;;;5035192;28;20085;-47
2022/01/08 06:01:33;;;;;;;1.23;0.10;;;19.60;46.80;;;;;;5034114;28;20135;-44
2022/01/08 06:04:00;;;;;;;0.75;0.70;;;19.60;46.90;;;;;;5034295;28;20756;-46
2022/01/08 06:06:28;;;;;;;1.83;0.10;;;19.60;47.00;;;;;;5038989;28;20045;-45
2022/01/08 06:08:55;;;;;;;3.80;0.10;;;19.60;47.00;;;;;;5035069;28;20553;-48
2022/01/08 06:11:22;;;;;;;0.20;0.20;;;19.60;47.10;;;;;;5032310;28;20041;-46
2022/01/08 06:13:49;;;;;;;0.60;0.00;;;19.60;47.10;;;;;;5032027;28;20045;-49
2022/01/08 06:16:18;;;;;;;0.35;0.20;;;19.70;47.20;;;;;;5039880;28;20141;-44
2022/01/08 06:18:45;;;;;;;1.30;0.03;;;19.70;47.20;;;;;;5034429;28;20033;-45
2022/01/08 06:21:12;;;;;;;0.10;0.10;;;19.70;47.20;;;;;;5035457;28;20073;-44
2022/01/08 06:23:39;;;;;;;1.95;0.10;;;19.70;47.20;;;;;;5034370;28;20040;-44
2022/01/08 06:26:07;;;;;;;0.30;0.00;;;19.70;47.20;;;;;;5036168;28;20091;-44
2022/01/08 06:28:34;;;;;;;0.45;0.00;;;19.70;47.30;;;;;;5042245;28;20077;-44
2022/01/08 06:31:01;;;;;;;0.50;0.05;;;19.70;47.30;;;;;;5036566;28;20059;-46
2022/01/08 06:33:30;;;;;;;0.90;0.03;;;19.70;47.30;;;;;;5040244;28;20052;-44
2022/01/08 06:35:57;;;;;;;0.55;0.00;;;19.70;47.40;;;;;;5036727;28;20167;-45
2022/01/08 06:38:24;;;;;;;0.20;0.00;;;19.80;47.50;;;;;;5032438;28;20060;-49
2022/01/08 06:40:51;;;;;;;0.32;0.00;;;19.80;47.50;;;;;;5032710;28;20042;-46
2022/01/08 06:43:18;;;;;;;0.10;0.05;;;19.80;47.50;;;;;;5044791;28;20052;-44
2022/01/08 06:45:46;;;;;;;0.73;0.08;;;19.80;47.50;;;;;;5034679;28;20503;-46
2022/01/08 06:48:13;;;;;;;1.17;0.05;;;19.80;47.40;;;;;;5043081;28;20501;-49
2022/01/08 06:50:41;;;;;;;1.67;0.10;;;19.80;47.40;;;;;;5032818;28;20048;-48
2022/01/08 06:53:09;;;;;;;0.30;0.00;;;19.80;47.40;;;;;;5042938;28;20052;-45
2022/01/08 06:55:36;;;;;;;0.20;0.00;;;19.80;47.40;;;;;;5030903;28;20041;-46
2022/01/08 06:58:03;;;;;;;1.48;0.10;;;19.80;47.40;;;;;;5038350;28;20469;-42
2022/01/08 07:00:30;;;;;;;0.80;0.20;;;19.80;47.30;;;;;;5039459;28;20033;-43
2022/01/08 07:02:59;;;;;;;2.15;0.10;;;19.80;47.20;;;;;;5041377;28;20047;-44
2022/01/08 07:05:26;;;;;;;1.88;0.08;;;19.80;47.20;;;;;;5032255;28;20049;-43
2022/01/08 07:07:55;;;;;;;0.80;0.10;;;19.80;47.10;;;;;;5033587;28;20465;-43
2022/01/08 07:10:22;;;;;;;0.25;0.10;;;19.80;47.10;;;;;;5038074;28;20081;-43
2022/01/08 07:12:49;;;;;;;0.50;0.10;;;19.80;47.10;;;;;;5034796;28;20045;-43
2022/01/08 07:15:16;;;;;;;0.10;0.00;;;19.90;47.00;;;;;;5039376;28;20051;-43
2022/01/08 07:17:43;;;;;;;0.25;0.00;;;19.80;47.00;;;;;;5034083;28;20389;-43
2022/01/08 07:20:11;;;;;;;2.10;0.05;;;19.80;46.90;;;;;;5030730;28;20044;-43
2022/01/08 07:22:39;;;;;;;0.10;0.00;;;19.80;46.90;;;;;;5031197;28;20049;-43
2022/01/08 07:25:09;;;;;;;0.38;0.03;;;19.90;47.60;;;;;;5038959;28;20712;-45
2022/01/08 07:27:36;;;;;;;0.55;0.55;;;19.80;46.80;;;;;;5034984;28;20131;-44
2022/01/08 07:30:05;;;;;;;0.95;0.10;;;19.80;46.80;;;;;;5033948;28;20119;-42
2022/01/08 07:32:33;;;;;;;2.15;0.17;;;19.80;46.80;;;;;;5032928;28;20048;-45
2022/01/08 07:35:00;;;;;;;0.73;0.10;;;19.80;46.80;;;;;;5035276;28;20037;-42
2022/01/08 07:37:27;;;;;;;1.27;0.45;;;19.80;46.80;;;;;;5034078;28;20104;-42
2022/01/08 07:39:55;;;;;;;0.57;0.10;;;19.80;46.80;;;;;;5033968;28;20045;-43
2022/01/08 07:42:23;;;;;;;2.25;0.10;;;19.80;46.80;;;;;;5038725;28;20040;-47
2022/01/08 07:44:50;;;;;;;1.10;0.10;;;19.80;46.80;;;;;;5045787;28;20044;-44
2022/01/08 07:47:17;;;;;;;1.00;0.10;;;19.80;46.80;;;;;;5031559;28;20131;-46
2022/01/08 07:49:44;;;;;;;0.15;0.00;;;19.80;46.80;;;;;;5031920;28;20041;-44
2022/01/08 07:52:11;;;;;;;0.70;0.10;;;19.80;46.70;;;;;;5031351;28;20057;-45
2022/01/08 07:54:39;;;;;;;1.45;0.10;;;19.80;46.70;;;;;;5029064;28;20037;-44
2022/01/08 07:57:06;;;;;;;2.00;0.05;;;19.80;46.80;;;;;;5035310;28;20055;-45
2022/01/08 07:59:34;;;;;;;2.08;0.10;;;19.80;46.90;;;;;;5030720;28;20077;-44
2022/01/08 08:02:02;;;;;;;0.38;0.00;;;19.80;46.90;;;;;;5029376;28;20050;-44
2022/01/08 08:04:29;;;;;;;1.55;0.43;;;19.80;46.90;;;;;;5031248;28;20082;-45
2022/01/08 08:06:56;;;;;;;0.60;0.10;;;19.80;47.00;;;;;;5036763;28;20049;-44
2022/01/08 08:09:24;;;;;;;0.55;0.10;;;19.80;47.00;;;;;;5032373;28;20045;-47
2022/01/08 08:11:51;;;;;;;1.23;0.20;;;19.80;47.00;;;;;;5030926;28;20160;-46
2022/01/08 08:14:18;;;;;;;0.60;0.10;;;19.80;47.00;;;;;;5031080;28;20044;-45
2022/01/08 08:16:46;;;;;;;0.50;0.10;;;19.80;47.10;;;;;;5033362;28;20041;-45
2022/01/08 08:19:14;;;;;;;0.35;0.10;;;19.80;47.20;;;;;;5032780;28;20046;-47
2022/01/08 08:21:41;;;;;;;0.40;0.10;;;19.80;47.10;;;;;;5033580;28;20041;-47
2022/01/08 08:24:08;;;;;;;1.00;0.10;;;19.80;47.10;;;;;;5035626;28;20041;-48
2022/01/08 08:26:38;;;;;;;1.55;0.00;;;19.80;47.10;;;;;;5033724;28;20128;-46
2022/01/08 08:29:06;;;;;;;0.20;0.00;;;19.80;47.10;;;;;;5029650;28;20065;-48
2022/01/08 08:31:33;;;;;;;0.10;0.03;;;19.80;47.20;;;;;;5032140;28;20128;-47
2022/01/08 08:34:02;;;;;;;1.25;0.10;;;19.80;47.30;;;;;;5038843;28;20052;-46
2022/01/08 08:36:29;;;;;;;0.75;0.10;;;19.80;47.30;;;;;;5034796;28;20406;-47
2022/01/08 08:38:56;;;;;;;2.33;0.30;;;19.80;47.40;;;;;;5031668;28;20049;-44
2022/01/08 08:41:23;;;;;;;1.88;0.10;;;19.80;47.30;;;;;;5032223;28;20037;-45
2022/01/08 08:43:50;;;;;;;0.75;0.10;;;19.80;47.40;;;;;;5043322;28;20607;-43
2022/01/08 08:46:17;;;;;;;0.65;0.35;;;19.80;47.30;;;;;;5034777;28;20057;-45
2022/01/08 08:48:45;;;;;;;1.95;0.20;;;19.80;47.40;;;;;;5036164;28;20045;-45
2022/01/08 08:51:13;;;;;;;0.70;0.10;;;19.80;47.30;;;;;;5030866;28;20040;-44
2022/01/08 08:53:40;;;;;;;2.10;0.17;;;19.80;47.90;;;;;;5028629;28;20048;-45
2022/01/08 08:56:07;;;;;;;0.75;0.20;;;19.80;47.30;;;;;;5041022;28;20098;-44
2022/01/08 08:58:34;;;;;;;0.47;0.10;;;19.80;47.30;;;;;;5030921;28;20518;-43
2022/01/08 09:01:02;;;;;;;0.75;0.55;;;19.80;47.40;;;;;;5040609;28;20050;-44
2022/01/08 09:03:29;;;;;;;2.38;0.10;;;19.80;47.30;;;;;;5031128;28;20571;-43
2022/01/08 09:05:56;;;;;;;0.98;0.10;;;19.80;47.30;;;;;;5034028;28;20041;-47
2022/01/08 09:08:26;;;;;;;0.82;0.10;;;19.80;47.30;;;;;;5035754;28;20091;-42
2022/01/08 09:10:54;;;;;;;0.52;0.00;;;19.80;47.90;;;;;;5032626;28;20132;-43
2022/01/08 09:13:24;;;;;;;0.88;0.10;;;19.80;47.30;;;;;;5035399;28;20138;-42
2022/01/08 09:15:51;;;;;;;0.82;0.10;;;19.80;47.30;;;;;;5040284;28;20379;-43
2022/01/08 09:18:18;;;;;;;3.63;0.10;;;19.80;47.20;;;;;;5036460;28;20395;-44
2022/01/08 09:20:45;;;;;;;0.10;0.00;;;19.80;47.20;;;;;;5033733;28;20041;-45
2022/01/08 09:23:14;;;;;;;0.20;0.10;;;19.80;47.20;;;;;;5045768;28;20044;-49
2022/01/08 09:25:42;;;;;;;1.48;0.10;;;19.80;47.20;;;;;;5037426;28;20052;-42
2022/01/08 09:28:09;;;;;;;0.68;0.30;;;19.80;47.20;;;;;;5035918;28;20052;-43
2022/01/08 09:30:36;;;;;;;1.52;0.75;;;19.80;47.20;;;;;;5040370;28;20080;-44
2022/01/08 09:33:04;;;;;;;1.20;0.10;;;19.80;47.10;;;;;;5038830;28;20626;-43
2022/01/08 09:35:31;;;;;;;0.75;0.08;;;19.80;47.10;;;;;;5048406;28;20067;-47
2022/01/08 09:37:58;;;;;;;2.00;0.10;;;19.80;47.10;;;;;;5032462;28;20656;-44
2022/01/08 09:40:26;;;;;;;0.50;0.10;;;19.80;47.00;;;;;;5036394;28;20115;-46
2022/01/08 09:42:55;;;;;;;0.98;0.10;;;19.80;47.00;;;;;;5043961;28;20036;-46
2022/01/08 09:45:22;;;;;;;0.38;0.13;;;19.80;47.00;;;;;;5042633;28;20057;-47
2022/01/08 09:47:49;;;;;;;0.10;0.10;;;19.80;47.00;;;;;;5034686;28;20041;-43
2022/01/08 09:50:17;;;;;;;0.20;0.10;;;19.80;47.00;;;;;;5035633;28;20041;-43
2022/01/08 09:52:44;;;;;;;0.88;0.55;;;19.80;47.00;;;;;;5031940;28;20042;-43
2022/01/08 09:55:11;;;;;;;1.95;0.10;;;19.80;46.90;;;;;;5033476;28;20801;-45
2022/01/08 09:57:38;;;;;;;1.27;0.20;;;19.80;46.90;;;;;;5038936;28;20046;-46
2022/01/08 10:00:14;;;;;;;2.00;0.10;;;19.80;47.00;;;;;;5034656;28;20414;-46
2022/01/08 10:02:41;;;;;;;0.82;0.10;;;19.80;46.90;;;;;;5032024;28;20132;-45
2022/01/08 10:05:10;;;;;;;0.20;0.10;;;19.80;47.00;;;;;;5033432;28;20044;-47
2022/01/08 10:07:37;;;;;;;0.20;0.10;;;19.80;47.00;;;;;;5036103;28;20052;-46
2022/01/08 10:10:12;;;;;;;1.27;0.10;;;19.80;47.00;;;;;;5034127;28;20101;-44
2022/01/08 10:12:47;;;;;;;0.20;0.10;;;19.80;46.90;;;;;;5035536;28;20061;-46
2022/01/08 10:18:10;;;;;;;1.33;0.28;;;19.80;47.00;;;;;;5034496;28;20052;-46
2022/01/08 10:20:39;;;;;;;0.20;0.10;;;19.80;47.00;;;;;;5032292;28;20045;-45
2022/01/08 10:23:12;;;;;;;0.73;0.10;;;19.80;47.00;;;;;;5030855;28;20040;-48
2022/01/08 10:25:42;;;;;;;0.68;0.47;;;19.80;46.90;;;;;;5036122;28;20046;-48
2022/01/08 10:28:10;;;;;;;1.63;0.13;;;19.80;46.90;;;;;;5037061;28;20045;-50
2022/01/08 10:30:38;;;;;;;0.85;0.43;;;19.90;47.00;;;;;;5036017;28;20045;-46
2022/01/08 10:33:06;;;;;;;3.95;0.90;;;19.80;46.90;;;;;;5038126;28;20127;-44
2022/01/08 10:35:52;;;;;;;1.27;0.17;;;19.80;46.90;;;;;;5036934;28;20048;-48
2022/01/08 10:38:20;;;;;;;10.85;0.30;;;19.80;46.80;;;;;;5045053;28;20540;-45
2022/01/08 10:40:47;;;;;;;1.00;0.10;;;19.80;46.90;;;;;;5037192;28;20041;-48
2022/01/08 10:43:27;;;;;;;0.88;0.10;;;19.80;46.90;;;;;;5047262;28;20049;-46
2022/01/08 10:46:07;;;;;;;1.13;0.20;;;19.80;47.00;;;;;;5041668;28;20065;-46
2022/01/08 10:48:35;;;;;;;1.58;0.55;;;19.80;47.30;;;;;;5041199;28;20049;-44
2022/01/08 10:51:15;;;;;;;2.63;0.32;;;19.80;47.60;;;;;;5036218;28;20040;-46
2022/01/08 10:54:00;;;;;;;1.92;0.17;;;19.80;47.80;;;;;;5035096;28;20045;-51
2022/01/08 10:56:29;;;;;;;2.95;0.85;;;19.80;47.90;;;;;;5041679;28;20044;-46
2022/01/08 10:59:03;;;;;;;2.50;0.20;;;19.80;47.90;;;;;;5033387;28;24545;-46
2022/01/08 11:01:39;;;;;;;6.43;0.28;;;19.80;48.00;;;;;;5039264;28;20124;-43
2022/01/08 11:04:08;;;;;;;3.03;0.20;;;19.90;48.10;;;;;;5032941;28;20136;-44
2022/01/08 11:06:49;;;;;;;1.17;0.60;;;19.90;48.10;;;;;;5037990;28;20534;-44
2022/01/08 11:09:17;;;;;;;2.15;1.70;;;20.00;48.30;;;;;;5033365;28;20136;-44
2022/01/08 11:11:45;;;;;;;9.82;0.25;;;19.90;48.20;;;;;;5031303;28;20037;-44
2022/01/08 11:14:23;;;;;;;2.38;0.28;;;19.90;48.30;;;;;;5038615;28;20739;-45
2022/01/08 11:16:53;;;;;;;2.60;0.30;;;20.00;48.40;;;;;;5037296;28;20041;-45
2022/01/08 11:19:21;;;;;;;6.10;0.20;;;20.00;48.30;;;;;;5039891;28;20044;-43
2022/01/08 11:21:49;;;;;;;5.43;0.30;;;20.00;48.30;;;;;;5039718;28;20045;-45
2022/01/08 11:24:18;;;;;;;3.88;0.20;;;20.00;48.30;;;;;;5040246;28;20425;-48
2022/01/08 11:26:50;;;;;;;3.08;1.80;;;20.00;48.20;;;;;;5039019;28;20127;-43
2022/01/08 11:29:22;;;;;;;2.65;0.40;;;20.00;48.20;;;;;;5034403;28;20051;-43
2022/01/08 11:31:56;;;;;;;3.03;0.28;;;20.10;48.20;;;;;;5037726;28;20188;-44
2022/01/08 11:34:25;;;;;;;3.38;0.15;;;20.10;48.20;;;;;;5040270;28;20036;-44
2022/01/08 11:36:53;;;;;;;1.90;0.10;;;20.00;48.10;;;;;;5040903;28;20784;-47
2022/01/08 11:39:27;;;;;;;3.60;0.50;;;20.10;48.10;;;;;;5037250;28;20033;-43
2022/01/08 11:41:55;;;;;;;3.20;0.50;;;20.10;48.10;;;;;;5038399;28;20080;-46
2022/01/08 11:44:25;;;;;;;1.90;0.30;;;20.10;48.10;;;;;;5034505;28;20103;-45
2022/01/08 11:46:54;;;;;;;2.13;0.20;;;20.10;48.10;;;;;;5030655;28;20077;-47
2022/01/08 11:49:22;;;;;;;4.70;1.05;;;20.10;48.10;;;;;;5037889;28;20408;-45
2022/01/08 11:52:16;;;;;;;1.55;0.50;;;20.10;48.00;;;;;;5040057;28;20391;-43
2022/01/08 11:54:44;;;;;;;2.22;0.38;;;20.10;48.00;;;;;;5037433;28;20053;-46
2022/01/08 11:57:19;;;;;;;3.40;0.50;;;20.10;48.00;;;;;;5041665;28;20509;-44
2022/01/08 11:59:48;;;;;;;1.40;0.45;;;20.10;48.00;;;;;;5029917;28;20136;-43
2022/01/08 12:02:19;;;;;;;3.03;0.28;;;20.10;48.00;;;;;;5029572;28;20036;-45
2022/01/08 12:04:53;;;;;;;2.92;0.73;;;20.10;47.90;;;;;;5028421;28;20053;-46
2022/01/08 12:07:33;;;;;;;5.22;1.00;;;20.10;47.90;;;;;;5035455;28;20068;-44
2022/01/08 12:10:15;;;;;;;2.67;0.65;;;20.20;48.00;;;;;;5031806;28;20033;-45
2022/01/08 12:12:51;;;;;;;2.60;0.50;;;20.20;47.90;;;;;;5032611;28;20127;-46
2022/01/08 12:15:34;;;;;;;4.65;0.57;;;20.10;47.80;;;;;;5041477;28;20051;-46
2022/01/08 12:18:03;;;;;;;8.27;1.02;;;20.10;47.80;;;;;;5031847;28;20072;-44
2022/01/08 12:20:43;;;;;;;4.18;0.90;;;20.10;47.80;;;;;;5030471;28;20052;-44
2022/01/08 12:23:28;;;;;;;5.60;0.47;;;20.20;47.90;;;;;;5029749;28;20041;-50
2022/01/08 12:25:56;;;;;;;4.38;0.77;;;20.10;47.80;;;;;;5036523;28;20049;-44
2022/01/08 12:28:58;;;;;;;3.28;1.10;;;20.10;47.90;;;;;;5038953;28;20493;-44
2022/01/08 12:31:29;;;;;;;5.35;0.70;;;20.20;47.80;;;;;;5036093;28;20037;-45
2022/01/08 12:34:35;;;;;;;4.70;0.75;;;20.10;47.90;;;;;;5037766;28;20045;-44
2022/01/08 12:37:04;;;;;;;6.95;1.95;;;20.20;48.00;;;;;;5033521;28;20046;-47
2022/01/08 12:39:49;;;;;;;4.97;0.75;;;20.10;48.10;;;;;;5033584;28;20533;-42
2022/01/08 12:42:38;;;;;;;8.20;1.27;;;20.20;48.40;;;;;;5039897;28;20045;-44
2022/01/08 12:45:09;;;;;;;12.98;1.95;;;20.20;48.60;;;;;;5040429;28;20550;-45
2022/01/08 12:47:44;;;;;;;6.60;1.30;;;20.20;48.80;;;;;;5034539;28;20048;-49
2022/01/08 12:50:31;;;;;;;8.53;0.87;;;20.20;48.90;;;;;;5033426;28;20052;-50
2022/01/08 12:53:25;;;;;;;4.22;0.63;;;20.20;48.80;;;;;;5042096;28;20335;-48
2022/01/08 12:56:13;;;;;;;12.48;1.90;;;20.20;48.80;;;;;;5038213;28;20155;-49
2022/01/08 12:58:53;;;;;;;11.35;1.05;;;20.20;48.80;;;;;;5041991;28;20164;-46
2022/01/08 13:01:23;;;;;;;6.30;1.05;;;20.20;48.80;;;;;;5040111;28;20037;-48
2022/01/08 13:03:53;;;;;;;3.95;0.80;;;20.20;48.80;;;;;;5041930;28;20132;-48
2022/01/08 13:06:31;;;;;;;6.32;0.80;;;20.20;48.80;;;;;;5039968;28;20029;-47
2022/01/08 13:09:00;;;;;;;7.03;1.33;;;20.20;48.90;;;;;;5034560;28;20057;-48
2022/01/08 13:11:31;;;;;;;4.72;0.40;;;20.20;48.80;;;;;;5032551;28;20037;-45
2022/01/08 13:14:00;;;;;;;3.55;0.52;;;20.20;48.90;;;;;;5033183;28;20041;-45